sensor_id;sensor_type;location;lat;lon;timestamp;P1;durP1;ratioP1;P2;durP2;ratioP2
5499;SDS011;2772;42.700;23.304;2023-06-22T00:00:45;18.70;;;14.40;;
5499;SDS011;2772;42.700;23.304;2023-06-22T00:03:12;18.07;;;14.13;;
5499;SDS011;2772;42.700;23.304;2023-06-22T00:05:39;17.13;;;13.93;;
5499;SDS011;2772;42.700;23.304;2023-06-22T00:08:06;18.27;;;14.47;;
5499;SDS011;2772;42.700;23.304;2023-06-22T00:10:32;21.60;;;15.43;;
5499;SDS011;2772;42.700;23.304;2023-06-22T00:13:00;19.23;;;14.70;;
5499;SDS011;2772;42.700;23.304;2023-06-22T00:15:27;17.77;;;14.13;;
5499;SDS011;2772;42.700;23.304;2023-06-22T00:17:56;18.97;;;13.37;;
5499;SDS011;2772;42.700;23.304;2023-06-22T00:20:24;19.77;;;13.57;;
5499;SDS011;2772;42.700;23.304;2023-06-22T00:22:53;20.17;;;13.90;;
5499;SDS011;2772;42.700;23.304;2023-06-22T00:25:19;27.40;;;14.50;;
5499;SDS011;2772;42.700;23.304;2023-06-22T00:27:46;25.27;;;14.57;;
5499;SDS011;2772;42.700;23.304;2023-06-22T00:30:13;20.53;;;14.70;;
5499;SDS011;2772;42.700;23.304;2023-06-22T00:32:41;17.10;;;13.27;;
5499;SDS011;2772;42.700;23.304;2023-06-22T00:35:10;20.13;;;13.57;;
5499;SDS011;2772;42.700;23.304;2023-06-22T00:37:37;21.47;;;13.33;;
5499;SDS011;2772;42.700;23.304;2023-06-22T00:40:08;17.50;;;13.10;;
5499;SDS011;2772;42.700;23.304;2023-06-22T00:42:37;18.33;;;13.50;;
5499;SDS011;2772;42.700;23.304;2023-06-22T00:45:05;21.17;;;13.77;;
5499;SDS011;2772;42.700;23.304;2023-06-22T00:47:32;21.80;;;14.60;;
5499;SDS011;2772;42.700;23.304;2023-06-22T00:50:01;24.80;;;14.27;;
5499;SDS011;2772;42.700;23.304;2023-06-22T00:52:30;19.87;;;13.80;;
5499;SDS011;2772;42.700;23.304;2023-06-22T00:55:00;15.83;;;13.23;;
5499;SDS011;2772;42.700;23.304;2023-06-22T00:57:28;21.33;;;13.90;;
5499;SDS011;2772;42.700;23.304;2023-06-22T00:59:55;20.57;;;12.63;;
5499;SDS011;2772;42.700;23.304;2023-06-22T01:02:22;19.27;;;13.77;;
5499;SDS011;2772;42.700;23.304;2023-06-22T01:04:49;19.20;;;13.47;;
5499;SDS011;2772;42.700;23.304;2023-06-22T01:07:17;17.80;;;13.03;;
5499;SDS011;2772;42.700;23.304;2023-06-22T01:09:56;15.97;;;13.37;;
5499;SDS011;2772;42.700;23.304;2023-06-22T01:12:25;17.30;;;12.73;;
5499;SDS011;2772;42.700;23.304;2023-06-22T01:14:58;17.93;;;12.90;;
5499;SDS011;2772;42.700;23.304;2023-06-22T01:17:31;26.23;;;13.37;;
5499;SDS011;2772;42.700;23.304;2023-06-22T01:19:59;20.83;;;13.43;;
5499;SDS011;2772;42.700;23.304;2023-06-22T01:22:33;15.80;;;12.23;;
5499;SDS011;2772;42.700;23.304;2023-06-22T01:25:12;14.67;;;12.40;;
5499;SDS011;2772;42.700;23.304;2023-06-22T01:27:47;20.83;;;14.37;;
5499;SDS011;2772;42.700;23.304;2023-06-22T01:30:27;18.43;;;13.07;;
5499;SDS011;2772;42.700;23.304;2023-06-22T01:32:58;18.23;;;12.60;;
5499;SDS011;2772;42.700;23.304;2023-06-22T01:35:25;18.23;;;13.00;;
5499;SDS011;2772;42.700;23.304;2023-06-22T01:37:52;16.97;;;13.43;;
5499;SDS011;2772;42.700;23.304;2023-06-22T01:40:19;20.20;;;13.30;;
5499;SDS011;2772;42.700;23.304;2023-06-22T01:42:47;15.83;;;12.77;;
5499;SDS011;2772;42.700;23.304;2023-06-22T01:45:14;13.93;;;12.10;;
5499;SDS011;2772;42.700;23.304;2023-06-22T01:47:43;16.73;;;12.67;;
5499;SDS011;2772;42.700;23.304;2023-06-22T01:50:11;15.83;;;11.37;;
5499;SDS011;2772;42.700;23.304;2023-06-22T01:52:38;18.10;;;11.93;;
5499;SDS011;2772;42.700;23.304;2023-06-22T01:55:05;15.80;;;12.10;;
5499;SDS011;2772;42.700;23.304;2023-06-22T01:57:33;19.33;;;12.43;;
5499;SDS011;2772;42.700;23.304;2023-06-22T02:00:00;13.60;;;12.10;;
5499;SDS011;2772;42.700;23.304;2023-06-22T02:02:30;15.20;;;12.67;;
5499;SDS011;2772;42.700;23.304;2023-06-22T02:05:03;17.00;;;13.40;;
5499;SDS011;2772;42.700;23.304;2023-06-22T02:07:33;18.47;;;14.27;;
5499;SDS011;2772;42.700;23.304;2023-06-22T02:10:06;17.57;;;13.33;;
5499;SDS011;2772;42.700;23.304;2023-06-22T02:12:34;17.53;;;13.37;;
5499;SDS011;2772;42.700;23.304;2023-06-22T02:15:04;23.90;;;14.30;;
5499;SDS011;2772;42.700;23.304;2023-06-22T02:17:32;16.40;;;12.60;;
5499;SDS011;2772;42.700;23.304;2023-06-22T02:20:02;20.47;;;13.40;;
5499;SDS011;2772;42.700;23.304;2023-06-22T02:22:31;20.57;;;14.80;;
5499;SDS011;2772;42.700;23.304;2023-06-22T02:24:57;18.63;;;14.90;;
5499;SDS011;2772;42.700;23.304;2023-06-22T02:27:24;19.30;;;13.67;;
5499;SDS011;2772;42.700;23.304;2023-06-22T02:29:51;19.47;;;14.40;;
5499;SDS011;2772;42.700;23.304;2023-06-22T02:32:17;21.53;;;14.60;;
5499;SDS011;2772;42.700;23.304;2023-06-22T02:34:44;18.60;;;14.40;;
5499;SDS011;2772;42.700;23.304;2023-06-22T02:37:14;19.43;;;13.63;;
5499;SDS011;2772;42.700;23.304;2023-06-22T02:39:40;18.80;;;15.20;;
5499;SDS011;2772;42.700;23.304;2023-06-22T02:42:07;18.93;;;13.90;;
5499;SDS011;2772;42.700;23.304;2023-06-22T02:44:35;22.23;;;13.43;;
5499;SDS011;2772;42.700;23.304;2023-06-22T02:47:02;27.30;;;14.80;;
5499;SDS011;2772;42.700;23.304;2023-06-22T02:49:29;17.93;;;13.77;;
5499;SDS011;2772;42.700;23.304;2023-06-22T02:51:57;18.53;;;13.70;;
5499;SDS011;2772;42.700;23.304;2023-06-22T02:54:25;20.20;;;13.80;;
5499;SDS011;2772;42.700;23.304;2023-06-22T02:56:51;15.13;;;13.10;;
5499;SDS011;2772;42.700;23.304;2023-06-22T02:59:18;20.67;;;14.70;;
5499;SDS011;2772;42.700;23.304;2023-06-22T03:01:48;24.03;;;15.50;;
5499;SDS011;2772;42.700;23.304;2023-06-22T03:04:15;19.77;;;14.83;;
5499;SDS011;2772;42.700;23.304;2023-06-22T03:06:42;21.40;;;15.47;;
5499;SDS011;2772;42.700;23.304;2023-06-22T03:09:09;20.70;;;13.63;;
5499;SDS011;2772;42.700;23.304;2023-06-22T03:11:37;19.20;;;13.60;;
5499;SDS011;2772;42.700;23.304;2023-06-22T03:14:04;16.50;;;13.00;;
5499;SDS011;2772;42.700;23.304;2023-06-22T03:16:30;20.57;;;14.17;;
5499;SDS011;2772;42.700;23.304;2023-06-22T03:18:58;19.93;;;14.23;;
5499;SDS011;2772;42.700;23.304;2023-06-22T03:21:26;16.60;;;12.67;;
5499;SDS011;2772;42.700;23.304;2023-06-22T03:23:54;17.70;;;12.13;;
5499;SDS011;2772;42.700;23.304;2023-06-22T03:26:20;16.17;;;13.93;;
5499;SDS011;2772;42.700;23.304;2023-06-22T03:28:49;20.87;;;13.03;;
5499;SDS011;2772;42.700;23.304;2023-06-22T03:31:16;16.40;;;12.40;;
5499;SDS011;2772;42.700;23.304;2023-06-22T03:33:46;17.03;;;12.90;;
5499;SDS011;2772;42.700;23.304;2023-06-22T03:36:13;19.53;;;14.53;;
5499;SDS011;2772;42.700;23.304;2023-06-22T03:38:41;22.10;;;13.20;;
5499;SDS011;2772;42.700;23.304;2023-06-22T03:41:08;14.87;;;12.30;;
5499;SDS011;2772;42.700;23.304;2023-06-22T03:43:34;14.90;;;13.30;;
5499;SDS011;2772;42.700;23.304;2023-06-22T03:46:03;21.73;;;12.30;;
5499;SDS011;2772;42.700;23.304;2023-06-22T03:48:29;20.80;;;12.97;;
5499;SDS011;2772;42.700;23.304;2023-06-22T03:50:56;20.70;;;14.60;;
5499;SDS011;2772;42.700;23.304;2023-06-22T03:53:23;19.70;;;13.83;;
5499;SDS011;2772;42.700;23.304;2023-06-22T03:55:49;21.07;;;13.40;;
5499;SDS011;2772;42.700;23.304;2023-06-22T03:58:17;24.83;;;16.20;;
5499;SDS011;2772;42.700;23.304;2023-06-22T04:00:45;18.30;;;13.77;;
5499;SDS011;2772;42.700;23.304;2023-06-22T04:03:13;21.43;;;14.00;;
5499;SDS011;2772;42.700;23.304;2023-06-22T04:05:41;24.13;;;14.30;;
5499;SDS011;2772;42.700;23.304;2023-06-22T04:08:08;19.53;;;14.17;;
5499;SDS011;2772;42.700;23.304;2023-06-22T04:10:35;18.90;;;14.13;;
5499;SDS011;2772;42.700;23.304;2023-06-22T04:13:01;21.03;;;15.17;;
5499;SDS011;2772;42.700;23.304;2023-06-22T04:15:28;22.17;;;16.73;;
5499;SDS011;2772;42.700;23.304;2023-06-22T04:17:56;29.17;;;15.63;;
5499;SDS011;2772;42.700;23.304;2023-06-22T04:20:24;19.20;;;14.23;;
5499;SDS011;2772;42.700;23.304;2023-06-22T04:22:52;28.27;;;15.20;;
5499;SDS011;2772;42.700;23.304;2023-06-22T04:25:19;23.70;;;14.90;;
5499;SDS011;2772;42.700;23.304;2023-06-22T04:27:46;18.43;;;13.90;;
5499;SDS011;2772;42.700;23.304;2023-06-22T04:30:13;22.50;;;14.17;;
5499;SDS011;2772;42.700;23.304;2023-06-22T04:32:41;24.57;;;14.30;;
5499;SDS011;2772;42.700;23.304;2023-06-22T04:35:08;29.30;;;16.70;;
5499;SDS011;2772;42.700;23.304;2023-06-22T04:37:36;26.57;;;16.03;;
5499;SDS011;2772;42.700;23.304;2023-06-22T04:40:04;29.30;;;16.10;;
5499;SDS011;2772;42.700;23.304;2023-06-22T04:42:34;19.77;;;15.37;;
5499;SDS011;2772;42.700;23.304;2023-06-22T04:45:01;23.37;;;15.00;;
5499;SDS011;2772;42.700;23.304;2023-06-22T04:47:28;17.40;;;14.43;;
5499;SDS011;2772;42.700;23.304;2023-06-22T04:49:55;23.67;;;15.40;;
5499;SDS011;2772;42.700;23.304;2023-06-22T04:52:21;18.10;;;14.40;;
5499;SDS011;2772;42.700;23.304;2023-06-22T04:54:51;59.60;;;35.97;;
5499;SDS011;2772;42.700;23.304;2023-06-22T04:57:20;38.73;;;24.13;;
5499;SDS011;2772;42.700;23.304;2023-06-22T04:59:57;78.30;;;48.67;;
5499;SDS011;2772;42.700;23.304;2023-06-22T05:02:26;36.53;;;24.20;;
5499;SDS011;2772;42.700;23.304;2023-06-22T05:04:57;35.03;;;14.53;;
5499;SDS011;2772;42.700;23.304;2023-06-22T05:07:24;19.27;;;14.70;;
5499;SDS011;2772;42.700;23.304;2023-06-22T05:09:53;27.70;;;16.80;;
5499;SDS011;2772;42.700;23.304;2023-06-22T05:12:19;20.37;;;16.27;;
5499;SDS011;2772;42.700;23.304;2023-06-22T05:14:46;24.57;;;16.63;;
5499;SDS011;2772;42.700;23.304;2023-06-22T05:17:13;23.90;;;14.23;;
5499;SDS011;2772;42.700;23.304;2023-06-22T05:19:44;17.97;;;14.40;;
5499;SDS011;2772;42.700;23.304;2023-06-22T05:22:13;22.60;;;16.30;;
5499;SDS011;2772;42.700;23.304;2023-06-22T05:24:40;26.73;;;14.53;;
5499;SDS011;2772;42.700;23.304;2023-06-22T05:27:08;21.80;;;14.83;;
5499;SDS011;2772;42.700;23.304;2023-06-22T05:29:35;20.00;;;15.70;;
5499;SDS011;2772;42.700;23.304;2023-06-22T05:32:03;21.00;;;15.10;;
5499;SDS011;2772;42.700;23.304;2023-06-22T05:34:30;20.03;;;16.40;;
5499;SDS011;2772;42.700;23.304;2023-06-22T05:36:56;22.70;;;16.80;;
5499;SDS011;2772;42.700;23.304;2023-06-22T05:39:24;24.67;;;17.73;;
5499;SDS011;2772;42.700;23.304;2023-06-22T05:41:51;31.13;;;15.77;;
5499;SDS011;2772;42.700;23.304;2023-06-22T05:44:23;23.73;;;15.43;;
5499;SDS011;2772;42.700;23.304;2023-06-22T05:46:50;23.93;;;16.67;;
5499;SDS011;2772;42.700;23.304;2023-06-22T05:49:17;19.97;;;15.53;;
5499;SDS011;2772;42.700;23.304;2023-06-22T05:51:44;33.73;;;16.30;;
5499;SDS011;2772;42.700;23.304;2023-06-22T05:54:10;23.37;;;17.30;;
5499;SDS011;2772;42.700;23.304;2023-06-22T05:56:38;23.87;;;16.40;;
5499;SDS011;2772;42.700;23.304;2023-06-22T05:59:05;24.20;;;17.23;;
5499;SDS011;2772;42.700;23.304;2023-06-22T06:01:33;19.40;;;15.63;;
5499;SDS011;2772;42.700;23.304;2023-06-22T06:04:01;20.40;;;15.20;;
5499;SDS011;2772;42.700;23.304;2023-06-22T06:06:29;16.87;;;14.40;;
5499;SDS011;2772;42.700;23.304;2023-06-22T06:08:55;24.47;;;16.80;;
5499;SDS011;2772;42.700;23.304;2023-06-22T06:11:23;24.20;;;16.43;;
5499;SDS011;2772;42.700;23.304;2023-06-22T06:13:51;28.00;;;16.93;;
5499;SDS011;2772;42.700;23.304;2023-06-22T06:16:18;17.70;;;14.93;;
5499;SDS011;2772;42.700;23.304;2023-06-22T06:18:46;22.53;;;15.60;;
5499;SDS011;2772;42.700;23.304;2023-06-22T06:21:14;26.40;;;16.60;;
5499;SDS011;2772;42.700;23.304;2023-06-22T06:23:41;23.53;;;16.60;;
5499;SDS011;2772;42.700;23.304;2023-06-22T06:26:08;23.63;;;16.33;;
5499;SDS011;2772;42.700;23.304;2023-06-22T06:28:35;26.83;;;16.73;;
5499;SDS011;2772;42.700;23.304;2023-06-22T06:31:02;29.27;;;16.87;;
5499;SDS011;2772;42.700;23.304;2023-06-22T06:33:32;24.17;;;18.53;;
5499;SDS011;2772;42.700;23.304;2023-06-22T06:36:00;23.20;;;16.87;;
5499;SDS011;2772;42.700;23.304;2023-06-22T06:38:28;24.00;;;16.70;;
5499;SDS011;2772;42.700;23.304;2023-06-22T06:40:55;23.00;;;16.37;;
5499;SDS011;2772;42.700;23.304;2023-06-22T06:43:22;24.80;;;15.17;;
5499;SDS011;2772;42.700;23.304;2023-06-22T06:45:49;19.30;;;15.10;;
5499;SDS011;2772;42.700;23.304;2023-06-22T06:48:16;24.60;;;16.50;;
5499;SDS011;2772;42.700;23.304;2023-06-22T06:50:43;23.40;;;15.07;;
5499;SDS011;2772;42.700;23.304;2023-06-22T06:53:11;27.57;;;16.10;;
5499;SDS011;2772;42.700;23.304;2023-06-22T06:55:38;21.00;;;15.70;;
5499;SDS011;2772;42.700;23.304;2023-06-22T06:58:05;20.57;;;16.17;;
5499;SDS011;2772;42.700;23.304;2023-06-22T07:00:34;21.20;;;15.60;;
5499;SDS011;2772;42.700;23.304;2023-06-22T07:03:02;22.67;;;15.03;;
5499;SDS011;2772;42.700;23.304;2023-06-22T07:05:28;21.90;;;15.40;;
5499;SDS011;2772;42.700;23.304;2023-06-22T07:07:55;23.70;;;16.47;;
5499;SDS011;2772;42.700;23.304;2023-06-22T07:10:23;19.10;;;14.97;;
5499;SDS011;2772;42.700;23.304;2023-06-22T07:12:50;22.13;;;15.00;;
5499;SDS011;2772;42.700;23.304;2023-06-22T07:15:17;21.77;;;15.90;;
5499;SDS011;2772;42.700;23.304;2023-06-22T07:17:44;21.27;;;15.30;;
5499;SDS011;2772;42.700;23.304;2023-06-22T07:20:11;19.67;;;15.20;;
5499;SDS011;2772;42.700;23.304;2023-06-22T07:22:38;31.77;;;16.20;;
5499;SDS011;2772;42.700;23.304;2023-06-22T07:25:06;28.70;;;15.90;;
5499;SDS011;2772;42.700;23.304;2023-06-22T07:27:37;17.70;;;13.97;;
5499;SDS011;2772;42.700;23.304;2023-06-22T07:30:05;22.57;;;14.70;;
5499;SDS011;2772;42.700;23.304;2023-06-22T07:32:33;22.37;;;14.83;;
5499;SDS011;2772;42.700;23.304;2023-06-22T07:34:59;23.23;;;15.20;;
5499;SDS011;2772;42.700;23.304;2023-06-22T07:37:27;18.53;;;13.83;;
5499;SDS011;2772;42.700;23.304;2023-06-22T07:39:54;27.53;;;15.47;;
5499;SDS011;2772;42.700;23.304;2023-06-22T07:42:23;27.40;;;14.13;;
5499;SDS011;2772;42.700;23.304;2023-06-22T07:44:52;16.77;;;14.23;;
5499;SDS011;2772;42.700;23.304;2023-06-22T07:47:19;22.53;;;14.53;;
5499;SDS011;2772;42.700;23.304;2023-06-22T07:49:50;20.40;;;14.37;;
5499;SDS011;2772;42.700;23.304;2023-06-22T07:52:17;31.57;;;14.20;;
5499;SDS011;2772;42.700;23.304;2023-06-22T07:54:43;22.03;;;15.63;;
5499;SDS011;2772;42.700;23.304;2023-06-22T07:57:10;19.53;;;14.83;;
5499;SDS011;2772;42.700;23.304;2023-06-22T07:59:37;24.10;;;15.70;;
5499;SDS011;2772;42.700;23.304;2023-06-22T08:02:05;18.97;;;14.43;;
5499;SDS011;2772;42.700;23.304;2023-06-22T08:04:33;20.33;;;14.63;;
5499;SDS011;2772;42.700;23.304;2023-06-22T08:07:00;16.10;;;14.10;;
5499;SDS011;2772;42.700;23.304;2023-06-22T08:09:27;20.83;;;14.60;;
5499;SDS011;2772;42.700;23.304;2023-06-22T08:11:54;24.90;;;15.03;;
5499;SDS011;2772;42.700;23.304;2023-06-22T08:14:21;28.60;;;14.83;;
5499;SDS011;2772;42.700;23.304;2023-06-22T08:16:48;26.20;;;15.20;;
5499;SDS011;2772;42.700;23.304;2023-06-22T08:19:16;17.67;;;15.20;;
5499;SDS011;2772;42.700;23.304;2023-06-22T08:21:43;18.93;;;15.10;;
5499;SDS011;2772;42.700;23.304;2023-06-22T08:24:10;23.03;;;13.80;;
5499;SDS011;2772;42.700;23.304;2023-06-22T08:26:37;17.10;;;15.17;;
5499;SDS011;2772;42.700;23.304;2023-06-22T08:29:03;17.90;;;13.87;;
5499;SDS011;2772;42.700;23.304;2023-06-22T08:31:31;18.50;;;15.23;;
5499;SDS011;2772;42.700;23.304;2023-06-22T08:33:59;22.77;;;14.87;;
5499;SDS011;2772;42.700;23.304;2023-06-22T08:36:28;16.17;;;14.10;;
5499;SDS011;2772;42.700;23.304;2023-06-22T08:38:57;17.13;;;14.73;;
5499;SDS011;2772;42.700;23.304;2023-06-22T08:41:27;15.97;;;14.30;;
5499;SDS011;2772;42.700;23.304;2023-06-22T08:43:54;14.57;;;13.07;;
5499;SDS011;2772;42.700;23.304;2023-06-22T08:46:21;17.53;;;14.10;;
5499;SDS011;2772;42.700;23.304;2023-06-22T08:48:55;13.80;;;12.40;;
5499;SDS011;2772;42.700;23.304;2023-06-22T08:51:22;13.93;;;12.57;;
5499;SDS011;2772;42.700;23.304;2023-06-22T08:53:50;38.87;;;15.77;;
5499;SDS011;2772;42.700;23.304;2023-06-22T08:56:17;21.73;;;13.93;;
5499;SDS011;2772;42.700;23.304;2023-06-22T08:58:44;17.23;;;12.83;;
5499;SDS011;2772;42.700;23.304;2023-06-22T09:01:10;17.70;;;14.10;;
5499;SDS011;2772;42.700;23.304;2023-06-22T09:03:37;14.13;;;11.63;;
5499;SDS011;2772;42.700;23.304;2023-06-22T09:06:04;16.13;;;12.60;;
5499;SDS011;2772;42.700;23.304;2023-06-22T09:08:31;19.00;;;14.10;;
5499;SDS011;2772;42.700;23.304;2023-06-22T09:10:59;13.67;;;12.20;;
5499;SDS011;2772;42.700;23.304;2023-06-22T09:13:26;18.03;;;13.47;;
5499;SDS011;2772;42.700;23.304;2023-06-22T09:15:54;12.60;;;10.47;;
5499;SDS011;2772;42.700;23.304;2023-06-22T09:18:20;12.63;;;11.37;;
5499;SDS011;2772;42.700;23.304;2023-06-22T09:20:47;13.07;;;11.67;;
5499;SDS011;2772;42.700;23.304;2023-06-22T09:23:14;13.53;;;12.13;;
5499;SDS011;2772;42.700;23.304;2023-06-22T09:25:41;13.53;;;12.23;;
5499;SDS011;2772;42.700;23.304;2023-06-22T09:28:09;14.97;;;13.43;;
5499;SDS011;2772;42.700;23.304;2023-06-22T09:30:36;13.50;;;12.20;;
5499;SDS011;2772;42.700;23.304;2023-06-22T09:33:03;14.03;;;12.60;;
5499;SDS011;2772;42.700;23.304;2023-06-22T09:35:29;12.70;;;11.43;;
5499;SDS011;2772;42.700;23.304;2023-06-22T09:37:56;13.20;;;11.27;;
5499;SDS011;2772;42.700;23.304;2023-06-22T09:40:23;11.57;;;10.43;;
5499;SDS011;2772;42.700;23.304;2023-06-22T09:42:50;10.97;;;9.97;;
5499;SDS011;2772;42.700;23.304;2023-06-22T09:45:18;11.60;;;10.47;;
5499;SDS011;2772;42.700;23.304;2023-06-22T09:47:44;15.07;;;12.40;;
5499;SDS011;2772;42.700;23.304;2023-06-22T09:50:11;11.43;;;10.23;;
5499;SDS011;2772;42.700;23.304;2023-06-22T09:52:38;12.43;;;11.23;;
5499;SDS011;2772;42.700;23.304;2023-06-22T09:55:05;13.37;;;11.97;;
5499;SDS011;2772;42.700;23.304;2023-06-22T09:57:32;13.57;;;12.17;;
5499;SDS011;2772;42.700;23.304;2023-06-22T09:59:59;14.93;;;12.67;;
5499;SDS011;2772;42.700;23.304;2023-06-22T10:02:27;13.70;;;12.30;;
5499;SDS011;2772;42.700;23.304;2023-06-22T10:04:54;13.83;;;12.43;;
5499;SDS011;2772;42.700;23.304;2023-06-22T10:07:21;14.47;;;13.10;;
5499;SDS011;2772;42.700;23.304;2023-06-22T10:09:48;15.60;;;12.90;;
5499;SDS011;2772;42.700;23.304;2023-06-22T10:12:14;16.13;;;11.87;;
5499;SDS011;2772;42.700;23.304;2023-06-22T10:14:41;14.27;;;12.97;;
5499;SDS011;2772;42.700;23.304;2023-06-22T10:17:08;13.63;;;12.33;;
5499;SDS011;2772;42.700;23.304;2023-06-22T10:19:38;12.70;;;11.40;;
5499;SDS011;2772;42.700;23.304;2023-06-22T10:22:06;19.20;;;12.30;;
5499;SDS011;2772;42.700;23.304;2023-06-22T10:24:33;16.23;;;11.80;;
5499;SDS011;2772;42.700;23.304;2023-06-22T10:27:00;19.43;;;12.40;;
5499;SDS011;2772;42.700;23.304;2023-06-22T10:29:27;13.77;;;12.10;;
5499;SDS011;2772;42.700;23.304;2023-06-22T10:31:53;16.10;;;13.10;;
5499;SDS011;2772;42.700;23.304;2023-06-22T10:34:20;13.23;;;11.60;;
5499;SDS011;2772;42.700;23.304;2023-06-22T10:36:48;12.90;;;11.60;;
5499;SDS011;2772;42.700;23.304;2023-06-22T10:39:15;12.37;;;11.17;;
5499;SDS011;2772;42.700;23.304;2023-06-22T10:41:42;13.85;;;12.43;;
5499;SDS011;2772;42.700;23.304;2023-06-22T10:44:08;16.00;;;14.43;;
5499;SDS011;2772;42.700;23.304;2023-06-22T10:46:35;14.00;;;11.83;;
5499;SDS011;2772;42.700;23.304;2023-06-22T10:49:02;12.87;;;11.50;;
5499;SDS011;2772;42.700;23.304;2023-06-22T10:51:29;14.73;;;12.10;;
5499;SDS011;2772;42.700;23.304;2023-06-22T10:53:58;13.60;;;12.00;;
5499;SDS011;2772;42.700;23.304;2023-06-22T10:56:24;20.57;;;15.07;;
5499;SDS011;2772;42.700;23.304;2023-06-22T10:58:51;15.07;;;13.57;;
5499;SDS011;2772;42.700;23.304;2023-06-22T11:01:18;16.90;;;14.20;;
5499;SDS011;2772;42.700;23.304;2023-06-22T11:03:46;13.97;;;12.50;;
5499;SDS011;2772;42.700;23.304;2023-06-22T11:06:13;12.10;;;10.90;;
5499;SDS011;2772;42.700;23.304;2023-06-22T11:08:43;13.90;;;12.43;;
5499;SDS011;2772;42.700;23.304;2023-06-22T11:11:11;17.93;;;12.07;;
5499;SDS011;2772;42.700;23.304;2023-06-22T11:13:38;13.03;;;11.50;;
5499;SDS011;2772;42.700;23.304;2023-06-22T11:16:05;15.70;;;14.20;;
5499;SDS011;2772;42.700;23.304;2023-06-22T11:18:33;12.57;;;11.27;;
5499;SDS011;2772;42.700;23.304;2023-06-22T11:20:59;13.40;;;12.10;;
5499;SDS011;2772;42.700;23.304;2023-06-22T11:23:26;14.13;;;12.37;;
5499;SDS011;2772;42.700;23.304;2023-06-22T11:25:53;19.13;;;12.30;;
5499;SDS011;2772;42.700;23.304;2023-06-22T11:28:21;14.90;;;12.93;;
5499;SDS011;2772;42.700;23.304;2023-06-22T11:30:48;13.40;;;12.10;;
5499;SDS011;2772;42.700;23.304;2023-06-22T11:33:15;13.67;;;12.10;;
5499;SDS011;2772;42.700;23.304;2023-06-22T11:35:42;13.90;;;12.60;;
5499;SDS011;2772;42.700;23.304;2023-06-22T11:38:08;14.60;;;12.70;;
5499;SDS011;2772;42.700;23.304;2023-06-22T11:40:35;20.33;;;15.33;;
5499;SDS011;2772;42.700;23.304;2023-06-22T11:43:02;15.47;;;12.33;;
5499;SDS011;2772;42.700;23.304;2023-06-22T11:45:30;12.60;;;11.50;;
5499;SDS011;2772;42.700;23.304;2023-06-22T11:47:57;11.93;;;10.83;;
5499;SDS011;2772;42.700;23.304;2023-06-22T11:50:23;17.80;;;12.10;;
5499;SDS011;2772;42.700;23.304;2023-06-22T11:52:50;13.23;;;11.30;;
5499;SDS011;2772;42.700;23.304;2023-06-22T11:55:18;12.00;;;10.80;;
5499;SDS011;2772;42.700;23.304;2023-06-22T11:57:54;12.30;;;11.00;;
5499;SDS011;2772;42.700;23.304;2023-06-22T12:00:23;13.07;;;11.77;;
5499;SDS011;2772;42.700;23.304;2023-06-22T12:02:51;12.90;;;10.90;;
5499;SDS011;2772;42.700;23.304;2023-06-22T12:05:18;13.60;;;11.10;;
5499;SDS011;2772;42.700;23.304;2023-06-22T12:07:46;11.63;;;10.53;;
5499;SDS011;2772;42.700;23.304;2023-06-22T12:10:12;15.23;;;10.87;;
5499;SDS011;2772;42.700;23.304;2023-06-22T12:12:39;13.73;;;12.00;;
5499;SDS011;2772;42.700;23.304;2023-06-22T12:15:06;14.20;;;11.80;;
5499;SDS011;2772;42.700;23.304;2023-06-22T12:17:33;12.63;;;11.27;;
5499;SDS011;2772;42.700;23.304;2023-06-22T12:20:01;12.17;;;11.00;;
5499;SDS011;2772;42.700;23.304;2023-06-22T12:22:30;15.77;;;11.80;;
5499;SDS011;2772;42.700;23.304;2023-06-22T12:24:57;15.10;;;11.80;;
5499;SDS011;2772;42.700;23.304;2023-06-22T12:27:24;23.20;;;12.90;;
5499;SDS011;2772;42.700;23.304;2023-06-22T12:29:51;16.03;;;13.70;;
5499;SDS011;2772;42.700;23.304;2023-06-22T12:32:18;21.83;;;13.40;;
5499;SDS011;2772;42.700;23.304;2023-06-22T12:34:45;20.43;;;14.20;;
5499;SDS011;2772;42.700;23.304;2023-06-22T12:37:13;21.13;;;15.40;;
5499;SDS011;2772;42.700;23.304;2023-06-22T12:39:40;20.60;;;12.63;;
5499;SDS011;2772;42.700;23.304;2023-06-22T12:42:07;17.30;;;11.90;;
5499;SDS011;2772;42.700;23.304;2023-06-22T12:44:34;14.80;;;11.00;;
5499;SDS011;2772;42.700;23.304;2023-06-22T12:47:01;18.70;;;9.97;;
5499;SDS011;2772;42.700;23.304;2023-06-22T12:49:28;17.07;;;10.63;;
5499;SDS011;2772;42.700;23.304;2023-06-22T12:51:54;16.20;;;12.03;;
5499;SDS011;2772;42.700;23.304;2023-06-22T12:54:23;14.43;;;9.10;;
5499;SDS011;2772;42.700;23.304;2023-06-22T12:56:49;20.03;;;8.93;;
5499;SDS011;2772;42.700;23.304;2023-06-22T12:59:16;20.70;;;9.70;;
5499;SDS011;2772;42.700;23.304;2023-06-22T13:01:43;21.33;;;9.83;;
5499;SDS011;2772;42.700;23.304;2023-06-22T13:04:10;11.67;;;8.40;;
5499;SDS011;2772;42.700;23.304;2023-06-22T13:06:39;20.50;;;9.27;;
5499;SDS011;2772;42.700;23.304;2023-06-22T13:09:06;13.50;;;8.27;;
5499;SDS011;2772;42.700;23.304;2023-06-22T13:11:35;16.50;;;9.30;;
5499;SDS011;2772;42.700;23.304;2023-06-22T13:14:02;25.60;;;10.90;;
5499;SDS011;2772;42.700;23.304;2023-06-22T13:16:28;15.43;;;10.20;;
5499;SDS011;2772;42.700;23.304;2023-06-22T13:18:55;14.47;;;9.97;;
5499;SDS011;2772;42.700;23.304;2023-06-22T13:21:22;17.60;;;8.90;;
5499;SDS011;2772;42.700;23.304;2023-06-22T13:23:49;15.10;;;9.63;;
5499;SDS011;2772;42.700;23.304;2023-06-22T13:26:15;14.93;;;9.73;;
5499;SDS011;2772;42.700;23.304;2023-06-22T13:28:44;16.17;;;9.50;;
5499;SDS011;2772;42.700;23.304;2023-06-22T13:31:10;19.83;;;11.00;;
5499;SDS011;2772;42.700;23.304;2023-06-22T13:33:37;29.90;;;12.73;;
5499;SDS011;2772;42.700;23.304;2023-06-22T13:36:05;16.90;;;12.57;;
5499;SDS011;2772;42.700;23.304;2023-06-22T13:38:32;13.50;;;12.10;;
5499;SDS011;2772;42.700;23.304;2023-06-22T13:41:00;19.33;;;13.17;;
5499;SDS011;2772;42.700;23.304;2023-06-22T13:43:26;17.57;;;12.60;;
5499;SDS011;2772;42.700;23.304;2023-06-22T13:45:55;17.47;;;13.30;;
5499;SDS011;2772;42.700;23.304;2023-06-22T13:48:21;17.40;;;12.57;;
5499;SDS011;2772;42.700;23.304;2023-06-22T13:50:50;17.93;;;12.77;;
5499;SDS011;2772;42.700;23.304;2023-06-22T13:53:17;15.33;;;11.40;;
5499;SDS011;2772;42.700;23.304;2023-06-22T13:55:46;16.97;;;10.17;;
5499;SDS011;2772;42.700;23.304;2023-06-22T13:58:12;34.17;;;11.60;;
5499;SDS011;2772;42.700;23.304;2023-06-22T14:00:39;15.33;;;10.73;;
5499;SDS011;2772;42.700;23.304;2023-06-22T14:03:07;18.60;;;11.30;;
5499;SDS011;2772;42.700;23.304;2023-06-22T14:05:34;15.70;;;10.50;;
5499;SDS011;2772;42.700;23.304;2023-06-22T14:08:01;14.53;;;11.13;;
5499;SDS011;2772;42.700;23.304;2023-06-22T14:10:27;15.13;;;11.07;;
5499;SDS011;2772;42.700;23.304;2023-06-22T14:12:54;15.23;;;10.27;;
5499;SDS011;2772;42.700;23.304;2023-06-22T14:15:21;33.87;;;19.30;;
5499;SDS011;2772;42.700;23.304;2023-06-22T14:17:48;16.63;;;10.00;;
5499;SDS011;2772;42.700;23.304;2023-06-22T14:20:16;14.75;;;10.73;;
5499;SDS011;2772;42.700;23.304;2023-06-22T14:22:42;16.07;;;11.53;;
5499;SDS011;2772;42.700;23.304;2023-06-22T14:25:09;14.27;;;11.83;;
5499;SDS011;2772;42.700;23.304;2023-06-22T14:27:36;22.60;;;13.53;;
5499;SDS011;2772;42.700;23.304;2023-06-22T14:30:03;36.37;;;19.23;;
5499;SDS011;2772;42.700;23.304;2023-06-22T14:32:30;25.00;;;17.67;;
5499;SDS011;2772;42.700;23.304;2023-06-22T14:34:57;38.43;;;29.30;;
5499;SDS011;2772;42.700;23.304;2023-06-22T14:37:25;28.10;;;16.53;;